South Plainfield, NJ

3:09 AM EST on February 11, 2016 (GMT -0500)
Greg's Weather Center | | Change Station
CLOSE
Current Station
Personal Weather Station
Location: South Plainfield, NJ
Elevation: 85 ft
Nearby Weather Stations

Elev 85 ft 40.59 °N, 74.42 °W | Updated 55 days ago

Partly Cloudy
Partly Cloudy
24 °F
Feels Like 14 °F
N
11
Wind Variable Wind from West
Gusts 19 mph

Today
High -- | Low -- °F
--% Chance of Precip.
Yesterday
High -- | Low -- °F
Precip. -- in
Pressure 29.83 in
Visibility 3.0 miles
Clouds Scattered Clouds 1300 ft
Mostly Cloudy 1800 ft
Overcast 2300 ft
Windchill 14 °F
Dew Point 10 °F
Humidity 55%
Rainfall in
Snow Depth Not available.
6:57 AM 5:27 PM
Waxing Crescent, 10% visible
METAR KLDJ 110755Z AUTO 32009G19KT 3SM -SN SCT013 BKN018 OVC023 M04/M07 A2983 RMK AO2 T10371071
Pressure 29.83 in
Visibility 3.0 miles
Clouds Scattered Clouds 1300 ft
Mostly Cloudy 1800 ft
Overcast 2300 ft
Windchill 14 °F
Dew Point 10 °F
Humidity 55%
Rainfall in
Snow Depth Not available.
6:57 AM 5:27 PM
Waxing Crescent, 10% visible
METAR KLDJ 110755Z AUTO 32009G19KT 3SM -SN SCT013 BKN018 OVC023 M04/M07 A2983 RMK AO2 T10371071

10-Day Weather Forecast

Almanac

Astronomy

Feb. 11, 2016 Rise Set
Actual Time
Civil Twilight
Nautical Twilight
Astronomical Twilight
Moon
Length of Visible Light
Length of Day
Tomorrow will be .
, % of the Moon is Illuminated

Today's Extremes

State Highs State Lows

Community

WunderPhotos

Upload Photos

1,892,030 photos uploaded!

WunderBlog® & News

Nearby

Air Quality

  Air Quality AQ Index Pollutant
Not available.

Snow Depth

Station Depth Elevation

Earthquake Activity

City Distance Mag. Time & Date
Minimum magnitude displayed is 2.5.

Coastal Water Temperatures

Place Temperature

Stations

Nearby Weather Stations

Station Location Temp. Windchill Dew Point Humidity Wind Precip. Elev Updated Type
                   

Watches & Warnings

There are currently no watches in effect.